Time;durP1;ratioP1;P1;durP2;ratioP2;P2;SDS_P1;SDS_P2;PMS_P1;PMS_P2;Temp;Humidity;BMP_temperature;BMP_pressure;BME280_temperature;BME280_humidity;BME280_pressure;Samples;Min_cycle;Max_cycle;Signal;HPM_P1;HPM_P2
2023/09/11 00:00:35;;;;;;;12.35;6.10;;;23.10;99.90;;;;;;5053386;28;20502;-73
2023/09/11 00:03:00;;;;;;;14.70;6.68;;;23.10;99.90;;;;;;5053385;28;20017;-72
2023/09/11 00:05:26;;;;;;;9.13;5.85;;;23.10;99.90;;;;;;5034974;28;20021;-73
2023/09/11 00:07:52;;;;;;;13.00;6.25;;;23.10;99.90;;;;;;5035721;28;20031;-73
2023/09/11 00:10:17;;;;;;;11.20;6.25;;;23.10;99.90;;;;;;5053389;28;20181;-73
2023/09/11 00:12:43;;;;;;;11.80;6.40;;;23.00;99.90;;;;;;5053475;28;20028;-73
2023/09/11 00:15:09;;;;;;;17.48;7.07;;;23.00;99.90;;;;;;5053453;28;20100;-73
2023/09/11 00:17:34;;;;;;;12.75;6.63;;;23.00;99.90;;;;;;5053020;28;20029;-73
2023/09/11 00:20:00;;;;;;;10.50;6.97;;;23.00;99.90;;;;;;5053297;28;20032;-73
2023/09/11 00:22:25;;;;;;;15.65;6.63;;;23.00;99.90;;;;;;5035358;28;20029;-73
2023/09/11 00:24:51;;;;;;;8.63;6.05;;;23.00;99.90;;;;;;5035345;28;20021;-73
2023/09/11 00:27:17;;;;;;;13.82;6.75;;;23.00;99.90;;;;;;5052980;28;20017;-73
2023/09/11 00:29:42;;;;;;;14.80;7.70;;;23.00;99.90;;;;;;5053308;28;20025;-73
2023/09/11 00:32:08;;;;;;;10.82;6.55;;;23.00;99.90;;;;;;5053022;28;20104;-73
2023/09/11 00:34:33;;;;;;;10.60;7.18;;;22.90;99.90;;;;;;5035536;28;20020;-73
2023/09/11 00:36:59;;;;;;;15.45;7.78;;;22.90;99.90;;;;;;5052728;28;20036;-73
2023/09/11 00:39:25;;;;;;;11.98;7.90;;;22.90;99.90;;;;;;5053300;28;20438;-73
2023/09/11 00:41:50;;;;;;;12.52;6.78;;;22.80;99.90;;;;;;5035264;28;20028;-73
2023/09/11 00:44:16;;;;;;;13.93;8.07;;;22.80;99.90;;;;;;5053230;28;20021;-73
2023/09/11 00:46:42;;;;;;;19.67;8.18;;;22.80;99.90;;;;;;5035122;28;20025;-72
2023/09/11 00:49:08;;;;;;;13.73;8.23;;;22.70;99.90;;;;;;5035395;28;20029;-73
2023/09/11 00:51:35;;;;;;;11.70;7.82;;;22.70;99.90;;;;;;5053011;28;20526;-73
2023/09/11 00:54:01;;;;;;;14.32;7.63;;;22.60;99.90;;;;;;5053330;28;20021;-73
2023/09/11 00:56:27;;;;;;;15.00;7.60;;;22.60;99.90;;;;;;5053566;28;20017;-73
2023/09/11 00:58:53;;;;;;;16.45;7.35;;;22.60;99.90;;;;;;5053172;28;20075;-73
2023/09/11 01:01:21;;;;;;;17.67;8.13;;;22.50;99.90;;;;;;5052738;28;20112;-73
2023/09/11 01:03:47;;;;;;;13.00;7.93;;;22.50;99.90;;;;;;5052719;28;20032;-73
2023/09/11 01:06:13;;;;;;;11.98;7.45;;;22.50;99.90;;;;;;5052652;28;20021;-73
2023/09/11 01:08:39;;;;;;;12.27;8.68;;;22.50;99.90;;;;;;5035633;28;20021;-73
2023/09/11 01:11:05;;;;;;;16.33;8.70;;;22.40;99.90;;;;;;5034916;28;20036;-73
2023/09/11 01:13:31;;;;;;;15.98;8.50;;;22.40;99.90;;;;;;5052775;28;20070;-73
2023/09/11 01:16:26;;;;;;;12.50;8.35;;;22.30;99.90;;;;;;5035009;28;20032;-73
2023/09/11 01:19:12;;;;;;;14.43;8.23;;;22.30;99.90;;;;;;4967666;28;20403;-73
2023/09/11 01:22:03;;;;;;;14.35;8.75;;;22.30;99.90;;;;;;5056529;28;20048;-73
2023/09/11 01:24:54;;;;;;;15.88;8.10;;;22.30;99.90;;;;;;5038489;28;20407;-73
2023/09/11 01:27:41;;;;;;;12.15;8.20;;;22.20;99.90;;;;;;5001156;28;20029;-73
2023/09/11 01:30:07;;;;;;;19.27;8.48;;;22.10;99.90;;;;;;5056485;28;20040;-73
2023/09/11 01:32:35;;;;;;;14.35;8.57;;;22.10;99.90;;;;;;5056381;28;20024;-73
2023/09/11 01:35:01;;;;;;;16.00;8.35;;;22.00;99.90;;;;;;5056121;28;20044;-73
2023/09/11 01:37:27;;;;;;;12.23;8.73;;;22.00;99.90;;;;;;5055643;28;20029;-73
2023/09/11 01:39:53;;;;;;;17.67;9.40;;;22.00;99.90;;;;;;5056130;28;20428;-73
2023/09/11 01:42:25;;;;;;;16.50;9.15;;;22.00;99.90;;;;;;5056225;28;20024;-73
2023/09/11 01:44:51;;;;;;;23.75;10.10;;;21.90;99.90;;;;;;5056091;28;20017;-73
2023/09/11 01:47:24;;;;;;;20.83;10.30;;;21.90;99.90;;;;;;5055828;28;20024;-73
2023/09/11 01:49:52;;;;;;;18.55;9.77;;;21.90;99.90;;;;;;5056375;28;20017;-73
2023/09/11 01:52:18;;;;;;;20.42;10.60;;;21.90;99.90;;;;;;5055920;28;20029;-73
2023/09/11 01:54:44;;;;;;;21.67;11.15;;;21.80;99.90;;;;;;5037932;28;20064;-73
2023/09/11 01:57:10;;;;;;;17.02;9.30;;;21.80;99.90;;;;;;5055556;28;20072;-73
2023/09/11 01:59:35;;;;;;;18.88;10.27;;;21.80;99.90;;;;;;5055796;28;20048;-73
2023/09/11 02:02:01;;;;;;;20.83;11.40;;;21.80;99.90;;;;;;5055794;28;20013;-72
2023/09/11 02:04:27;;;;;;;19.00;10.13;;;21.70;99.90;;;;;;5055816;28;20017;-73
2023/09/11 02:06:52;;;;;;;19.95;11.20;;;21.70;99.90;;;;;;5037663;28;20017;-73
2023/09/11 02:09:18;;;;;;;18.25;10.15;;;21.70;99.90;;;;;;5055235;28;20476;-72
2023/09/11 02:11:43;;;;;;;16.90;11.07;;;21.70;99.90;;;;;;5055565;28;20031;-73
2023/09/11 02:14:09;;;;;;;18.98;10.88;;;21.70;99.90;;;;;;5056554;28;20025;-73
2023/09/11 02:16:35;;;;;;;17.27;11.57;;;21.60;99.90;;;;;;5055407;28;20075;-73
2023/09/11 02:19:00;;;;;;;18.08;10.40;;;21.60;99.90;;;;;;5037785;28;20013;-73
2023/09/11 02:21:26;;;;;;;22.63;11.23;;;21.60;99.90;;;;;;5037732;28;20051;-73
2023/09/11 02:23:51;;;;;;;21.60;12.65;;;21.60;99.90;;;;;;5037346;28;20552;-73
2023/09/11 02:26:17;;;;;;;19.67;11.55;;;21.60;99.90;;;;;;5055206;28;20373;-73
2023/09/11 02:28:42;;;;;;;22.15;12.20;;;21.60;99.90;;;;;;5055002;28;20025;-74
2023/09/11 02:31:08;;;;;;;23.20;12.30;;;21.60;99.90;;;;;;5037656;28;20115;-73
2023/09/11 02:33:34;;;;;;;26.23;13.10;;;21.60;99.90;;;;;;5055015;28;20028;-73
2023/09/11 02:35:59;;;;;;;20.48;12.88;;;21.60;99.90;;;;;;5054942;28;20110;-73
2023/09/11 02:38:25;;;;;;;22.48;12.88;;;21.50;99.90;;;;;;5037214;28;20056;-73
2023/09/11 02:40:51;;;;;;;20.73;12.90;;;21.50;99.90;;;;;;5055125;28;20013;-73
2023/09/11 02:43:17;;;;;;;22.92;12.27;;;21.50;99.90;;;;;;5036775;28;20111;-73
2023/09/11 02:45:44;;;;;;;24.33;13.30;;;21.50;99.90;;;;;;5054755;28;20084;-73
2023/09/11 02:48:10;;;;;;;24.50;12.95;;;21.50;99.90;;;;;;5055141;28;20472;-73
2023/09/11 02:50:37;;;;;;;21.38;13.25;;;21.40;99.90;;;;;;5054721;28;20082;-73
2023/09/11 02:53:05;;;;;;;22.67;13.18;;;21.40;99.90;;;;;;5054591;28;20029;-73
2023/09/11 02:55:31;;;;;;;22.05;12.98;;;21.40;99.90;;;;;;5054858;28;20182;-73
2023/09/11 02:57:56;;;;;;;22.05;13.10;;;21.30;99.90;;;;;;5055373;28;20577;-73
2023/09/11 03:00:22;;;;;;;21.10;12.85;;;21.30;99.90;;;;;;5054173;28;20064;-73
2023/09/11 03:02:48;;;;;;;17.65;12.63;;;21.30;99.90;;;;;;5054494;28;20020;-73
2023/09/11 03:05:13;;;;;;;25.52;13.82;;;21.30;99.90;;;;;;5054274;28;20155;-73
2023/09/11 03:07:39;;;;;;;18.00;12.60;;;21.30;99.90;;;;;;5054604;28;20476;-73
2023/09/11 03:10:06;;;;;;;26.23;13.43;;;21.20;99.90;;;;;;5054297;28;20024;-73
2023/09/11 03:12:32;;;;;;;24.73;13.88;;;21.20;99.90;;;;;;5036417;28;20470;-74
2023/09/11 03:15:03;;;;;;;24.70;13.43;;;21.20;99.90;;;;;;5053808;28;20068;-73
2023/09/11 03:17:30;;;;;;;32.47;14.07;;;21.10;99.90;;;;;;5045615;28;20024;-73
2023/09/11 03:19:56;;;;;;;25.40;14.70;;;21.10;99.90;;;;;;5074171;28;20035;-73
2023/09/11 03:22:22;;;;;;;23.00;14.38;;;21.10;99.90;;;;;;5056314;28;20504;-73
2023/09/11 03:24:48;;;;;;;23.35;14.68;;;21.10;99.90;;;;;;5074430;28;20020;-73
2023/09/11 03:27:13;;;;;;;22.90;13.82;;;21.00;99.90;;;;;;5073792;28;20025;-73
2023/09/11 03:29:39;;;;;;;19.60;14.13;;;21.00;99.90;;;;;;5073906;28;20060;-73
2023/09/11 03:32:05;;;;;;;23.17;13.77;;;21.00;99.90;;;;;;5074209;28;20025;-73
2023/09/11 03:34:31;;;;;;;21.35;14.05;;;;;;;;;;5074102;28;20098;-73
2023/09/11 03:36:57;;;;;;;38.33;16.00;;;20.90;99.90;;;;;;5074073;28;20037;-73
2023/09/11 03:39:22;;;;;;;26.27;14.98;;;21.00;99.90;;;;;;5073544;28;20039;-73
2023/09/11 03:41:48;;;;;;;27.65;15.00;;;20.90;99.90;;;;;;5055128;28;20025;-73
2023/09/11 03:44:13;;;;;;;25.30;15.65;;;20.90;99.90;;;;;;5074099;28;20052;-73
2023/09/11 03:46:39;;;;;;;23.95;14.65;;;20.90;99.90;;;;;;5073755;28;20025;-73
2023/09/11 03:49:04;;;;;;;25.85;15.73;;;20.80;99.90;;;;;;5073614;28;20028;-73
2023/09/11 03:51:30;;;;;;;24.75;16.38;;;20.80;99.90;;;;;;5073928;28;20033;-73
2023/09/11 03:53:57;;;;;;;24.00;15.63;;;20.80;99.90;;;;;;5073957;28;20483;-73
2023/09/11 03:56:23;;;;;;;26.20;14.40;;;20.80;99.90;;;;;;5073789;28;20472;-73
2023/09/11 03:58:50;;;;;;;26.52;15.75;;;20.80;99.90;;;;;;5073620;28;20109;-73
2023/09/11 04:01:16;;;;;;;24.63;15.80;;;20.70;99.90;;;;;;5073239;28;20051;-73
2023/09/11 04:03:42;;;;;;;26.00;14.75;;;20.70;99.90;;;;;;5073573;28;20028;-73
2023/09/11 04:06:08;;;;;;;29.55;15.00;;;20.70;99.90;;;;;;5073313;28;20426;-73
2023/09/11 04:08:34;;;;;;;25.73;14.70;;;20.70;99.90;;;;;;5073667;28;20078;-73
2023/09/11 04:11:00;;;;;;;21.77;14.57;;;20.60;99.90;;;;;;5073589;28;20551;-73
2023/09/11 04:13:26;;;;;;;24.20;14.25;;;20.60;99.90;;;;;;5055590;28;20044;-73
2023/09/11 04:15:52;;;;;;;29.55;15.75;;;20.60;99.90;;;;;;5055895;28;20025;-73
2023/09/11 04:18:18;;;;;;;28.83;15.88;;;20.50;99.90;;;;;;5073292;28;20040;-73
2023/09/11 04:20:43;;;;;;;31.08;15.82;;;20.50;99.90;;;;;;5073218;28;20025;-73
2023/09/11 04:23:09;;;;;;;27.50;15.70;;;20.50;99.90;;;;;;5073240;28;20020;-73
2023/09/11 04:25:34;;;;;;;23.92;15.50;;;20.50;99.90;;;;;;5073213;28;20016;-73
2023/09/11 04:28:00;;;;;;;26.10;15.10;;;20.50;99.90;;;;;;5073467;28;20480;-73
2023/09/11 04:30:25;;;;;;;27.88;14.45;;;20.40;99.90;;;;;;5073281;28;20036;-73
2023/09/11 04:32:52;;;;;;;30.65;15.20;;;20.40;99.90;;;;;;5073022;28;20096;-73
2023/09/11 04:35:18;;;;;;;27.27;15.82;;;20.40;99.90;;;;;;5073137;28;20032;-74
2023/09/11 04:37:44;;;;;;;24.95;15.07;;;20.40;99.90;;;;;;5073090;28;20032;-73
2023/09/11 04:40:10;;;;;;;23.77;15.25;;;20.30;99.90;;;;;;5073265;28;20483;-73
2023/09/11 04:42:37;;;;;;;26.80;14.50;;;20.30;99.90;;;;;;5073043;28;20025;-73
2023/09/11 04:45:06;;;;;;;22.30;14.25;;;20.30;99.90;;;;;;5073123;28;20044;-73
2023/09/11 04:47:31;;;;;;;23.52;15.40;;;20.30;99.90;;;;;;5073698;28;20387;-73
2023/09/11 04:49:58;;;;;;;30.55;15.00;;;20.30;99.90;;;;;;5054945;28;20017;-73
2023/09/11 04:52:24;;;;;;;23.35;13.90;;;20.30;99.90;;;;;;5075126;28;20468;-74
2023/09/11 04:54:49;;;;;;;24.75;14.45;;;20.30;99.90;;;;;;5076779;28;20521;-73
2023/09/11 04:57:15;;;;;;;24.67;15.70;;;20.30;99.90;;;;;;5058807;28;20020;-74
2023/09/11 04:59:42;;;;;;;27.35;14.77;;;20.30;99.90;;;;;;5076514;28;20391;-73
2023/09/11 05:02:10;;;;;;;22.33;14.75;;;20.30;99.90;;;;;;5076730;28;20056;-73
2023/09/11 05:04:36;;;;;;;23.33;14.75;;;20.20;99.90;;;;;;5076833;28;20126;-73
2023/09/11 05:07:02;;;;;;;18.17;11.98;;;20.30;99.90;;;;;;5076866;28;20047;-74
2023/09/11 05:09:30;;;;;;;25.63;14.02;;;20.30;99.90;;;;;;5076885;28;20013;-73
2023/09/11 05:11:55;;;;;;;24.83;14.68;;;20.30;99.90;;;;;;5076754;28;20025;-73
2023/09/11 05:14:22;;;;;;;23.25;13.88;;;20.40;99.90;;;;;;5076607;28;20050;-73
2023/09/11 05:16:47;;;;;;;27.70;13.90;;;20.40;99.90;;;;;;5058714;28;20078;-73
2023/09/11 05:19:13;;;;;;;20.55;12.75;;;20.40;99.90;;;;;;5076623;28;20406;-73
2023/09/11 05:21:38;;;;;;;22.08;14.02;;;20.50;99.90;;;;;;5076624;28;20017;-73
2023/09/11 05:24:04;;;;;;;23.60;12.65;;;20.60;99.90;;;;;;5076514;28;20078;-73
2023/09/11 05:26:30;;;;;;;22.25;13.25;;;20.70;99.90;;;;;;5058834;28;20020;-73
2023/09/11 05:28:56;;;;;;;22.33;12.18;;;20.70;99.90;;;;;;5076468;28;20387;-73
2023/09/11 05:31:22;;;;;;;28.27;12.45;;;20.80;99.90;;;;;;5058436;28;20035;-73
2023/09/11 05:33:47;;;;;;;22.88;12.43;;;20.80;99.90;;;;;;5058308;28;20493;-73
2023/09/11 05:36:13;;;;;;;19.55;12.27;;;20.90;99.90;;;;;;5076332;28;20507;-73
2023/09/11 05:38:39;;;;;;;21.15;13.07;;;20.90;99.90;;;;;;5076089;28;20039;-73
2023/09/11 05:41:04;;;;;;;18.92;11.70;;;21.00;99.90;;;;;;5075910;28;20365;-73
2023/09/11 05:43:30;;;;;;;18.30;12.13;;;21.00;99.90;;;;;;5075939;28;20021;-74
2023/09/11 05:45:56;;;;;;;24.10;13.93;;;21.10;99.90;;;;;;5076334;28;20024;-73
2023/09/11 05:48:22;;;;;;;19.45;11.50;;;21.10;99.90;;;;;;5076383;28;20047;-73
2023/09/11 05:50:47;;;;;;;23.85;12.85;;;21.10;99.90;;;;;;5076138;28;20082;-73
2023/09/11 05:53:13;;;;;;;22.33;11.68;;;21.20;99.90;;;;;;5057600;28;20541;-74
2023/09/11 05:55:39;;;;;;;21.75;12.75;;;21.20;99.90;;;;;;5075883;28;20028;-73
2023/09/11 05:58:04;;;;;;;19.67;12.23;;;21.10;99.90;;;;;;5075795;28;20024;-73
2023/09/11 06:00:30;;;;;;;17.10;11.40;;;21.10;99.90;;;;;;5075647;28;20036;-73
2023/09/11 06:02:56;;;;;;;20.65;12.85;;;21.00;99.90;;;;;;5057328;28;20055;-73
2023/09/11 06:05:23;;;;;;;25.52;12.68;;;21.00;99.90;;;;;;5075464;28;20060;-73
2023/09/11 06:07:49;;;;;;;23.75;12.63;;;20.90;99.90;;;;;;5075942;28;20024;-73
2023/09/11 06:10:15;;;;;;;18.92;12.35;;;20.90;99.90;;;;;;5057513;28;20017;-73
2023/09/11 06:12:41;;;;;;;18.55;11.93;;;20.80;99.90;;;;;;5075427;28;20024;-73
2023/09/11 06:15:07;;;;;;;22.05;13.20;;;20.80;99.90;;;;;;5057449;28;20025;-73
2023/09/11 06:17:33;;;;;;;18.85;11.68;;;20.80;99.90;;;;;;5056958;28;20066;-73
2023/09/11 06:19:58;;;;;;;22.80;12.43;;;20.80;99.90;;;;;;5073465;28;20039;-73
2023/09/11 06:22:24;;;;;;;17.95;11.85;;;20.90;99.90;;;;;;5074385;28;20412;-72
2023/09/11 06:24:50;;;;;;;17.33;11.27;;;20.90;99.90;;;;;;5074284;28;20025;-72
2023/09/11 06:27:16;;;;;;;19.60;11.10;;;20.90;99.90;;;;;;5075621;28;20484;-72
2023/09/11 06:29:41;;;;;;;18.65;11.27;;;21.00;99.90;;;;;;5074195;28;20061;-73
2023/09/11 06:32:07;;;;;;;17.38;9.98;;;21.10;99.90;;;;;;5075521;28;20017;-73
2023/09/11 06:34:33;;;;;;;17.90;9.88;;;21.10;99.90;;;;;;5075205;28;20021;-73
2023/09/11 06:36:58;;;;;;;17.35;10.38;;;21.20;99.90;;;;;;5057292;28;20060;-73
2023/09/11 06:39:24;;;;;;;17.05;8.98;;;21.30;99.90;;;;;;5075016;28;20021;-73
2023/09/11 06:41:49;;;;;;;16.33;9.27;;;21.30;99.90;;;;;;5075130;28;20024;-73
2023/09/11 06:44:15;;;;;;;15.82;8.77;;;21.40;99.90;;;;;;5057324;28;20024;-73
2023/09/11 06:46:42;;;;;;;14.52;8.90;;;21.50;99.90;;;;;;5074967;28;20068;-73
2023/09/11 06:49:08;;;;;;;16.70;9.32;;;21.60;99.90;;;;;;5074957;28;20059;-73
2023/09/11 06:51:34;;;;;;;16.58;8.35;;;21.80;99.90;;;;;;5075233;28;20078;-73
2023/09/11 06:54:01;;;;;;;15.70;8.02;;;21.70;99.90;;;;;;5074870;28;20025;-72
2023/09/11 06:56:26;;;;;;;12.50;7.40;;;21.80;99.90;;;;;;5074611;28;20028;-72
2023/09/11 06:58:52;;;;;;;13.48;6.45;;;22.00;99.90;;;;;;5074858;28;20058;-72
2023/09/11 07:01:17;;;;;;;15.57;6.78;;;22.00;99.90;;;;;;5056723;28;20028;-72
2023/09/11 07:03:45;;;;;;;14.75;6.05;;;22.20;99.90;;;;;;5075167;28;20027;-72
2023/09/11 07:06:11;;;;;;;10.80;5.85;;;22.40;99.90;;;;;;5074519;28;20070;-73
2023/09/11 07:08:37;;;;;;;13.98;6.00;;;22.50;99.90;;;;;;5056784;28;20488;-72
2023/09/11 07:11:02;;;;;;;13.40;6.07;;;22.60;99.90;;;;;;5074584;28;20479;-72
2023/09/11 07:13:28;;;;;;;12.57;6.07;;;22.70;99.90;;;;;;5074508;28;20482;-72
2023/09/11 07:15:58;;;;;;;12.88;5.43;;;22.90;99.90;;;;;;5074812;28;20020;-73
2023/09/11 07:18:24;;;;;;;11.07;5.18;;;23.00;99.90;;;;;;5056664;28;20035;-73
2023/09/11 07:20:51;;;;;;;9.90;5.47;;;23.10;99.90;;;;;;5074346;28;20025;-72
2023/09/11 07:23:19;;;;;;;12.80;6.32;;;23.10;99.90;;;;;;5074575;28;20025;-73
2023/09/11 07:25:46;;;;;;;10.98;5.28;;;23.20;99.90;;;;;;5056480;28;20028;-72
2023/09/11 07:28:13;;;;;;;13.23;6.18;;;23.30;99.90;;;;;;5074334;28;20021;-72
2023/09/11 07:30:38;;;;;;;12.63;6.13;;;23.40;99.90;;;;;;5074313;28;20035;-72
2023/09/11 07:33:04;;;;;;;16.48;5.97;;;23.50;99.90;;;;;;5073897;28;20028;-72
2023/09/11 07:35:30;;;;;;;13.05;5.93;;;23.70;99.90;;;;;;5074312;28;20024;-72
2023/09/11 07:37:56;;;;;;;9.98;6.00;;;23.80;99.90;;;;;;5073885;28;20461;-72
2023/09/11 07:40:21;;;;;;;11.18;5.80;;;23.80;99.90;;;;;;5074384;28;20024;-72
2023/09/11 07:42:47;;;;;;;19.52;5.78;;;23.90;99.90;;;;;;5073881;28;20479;-72
2023/09/11 07:45:13;;;;;;;10.25;5.72;;;24.00;99.90;;;;;;5074004;28;20031;-72
2023/09/11 07:47:38;;;;;;;10.18;5.75;;;24.10;99.90;;;;;;5073884;28;20040;-72
2023/09/11 07:50:13;;;;;;;12.85;6.10;;;24.20;99.90;;;;;;5074931;28;20032;-72
2023/09/11 07:52:38;;;;;;;8.90;5.13;;;24.30;99.90;;;;;;5073908;28;20028;-72
2023/09/11 07:55:06;;;;;;;15.23;5.55;;;24.40;99.90;;;;;;5073893;28;20054;-72
2023/09/11 07:57:32;;;;;;;11.50;5.28;;;24.50;99.90;;;;;;5055840;28;20410;-72
2023/09/11 08:00:03;;;;;;;10.27;6.03;;;24.50;99.90;;;;;;5073686;28;20020;-72
2023/09/11 08:02:29;;;;;;;13.05;6.05;;;24.60;99.90;;;;;;5055216;28;20032;-72
2023/09/11 08:04:55;;;;;;;11.25;6.75;;;24.60;99.90;;;;;;5073696;28;20500;-73
2023/09/11 08:07:21;;;;;;;12.50;6.95;;;24.60;99.90;;;;;;5073630;28;20031;-72
2023/09/11 08:09:46;;;;;;;10.02;6.50;;;24.70;99.90;;;;;;5073548;28;20020;-72
2023/09/11 08:12:12;;;;;;;15.63;6.07;;;24.70;99.90;;;;;;5073679;28;20107;-72
2023/09/11 08:14:38;;;;;;;11.30;7.35;;;24.70;99.90;;;;;;5055611;28;20036;-72
2023/09/11 08:17:03;;;;;;;10.90;5.88;;;24.60;99.90;;;;;;5073328;28;20029;-72
2023/09/11 08:19:29;;;;;;;12.32;6.88;;;24.60;99.90;;;;;;5074010;28;20036;-72
2023/09/11 08:21:55;;;;;;;12.35;6.47;;;24.80;99.90;;;;;;5073347;28;20020;-72
2023/09/11 08:24:22;;;;;;;16.73;6.95;;;24.80;99.90;;;;;;5055494;28;20027;-72
2023/09/11 08:26:48;;;;;;;12.27;5.70;;;24.80;99.90;;;;;;5076513;28;20024;-72
2023/09/11 08:29:15;;;;;;;11.65;5.97;;;24.90;99.90;;;;;;5062238;28;20479;-72
2023/09/11 08:31:41;;;;;;;11.73;5.43;;;25.00;99.90;;;;;;5080056;28;20020;-72
2023/09/11 08:34:06;;;;;;;10.00;5.97;;;25.10;99.90;;;;;;5080676;28;20036;-72
2023/09/11 08:36:32;;;;;;;13.15;6.53;;;25.20;99.90;;;;;;5061885;28;20395;-72
2023/09/11 08:38:58;;;;;;;12.95;5.85;;;25.20;99.90;;;;;;5080151;28;20032;-72
2023/09/11 08:41:25;;;;;;;8.70;5.60;;;25.20;99.90;;;;;;5080449;28;20064;-72
2023/09/11 08:43:51;;;;;;;14.98;6.70;;;25.20;99.90;;;;;;5079952;28;20027;-72
2023/09/11 08:46:17;;;;;;;15.15;6.82;;;25.20;99.90;;;;;;5079969;28;20025;-72
2023/09/11 08:48:45;;;;;;;12.27;5.10;;;25.30;99.90;;;;;;5080148;28;20013;-72
2023/09/11 08:51:27;;;;;;;7.90;5.10;;;25.30;99.90;;;;;;5080035;28;20368;-72
2023/09/11 08:53:55;;;;;;;10.75;6.90;;;25.50;99.90;;;;;;5062147;28;20028;-72
2023/09/11 08:56:21;;;;;;;;;;;25.50;99.90;;;;;;5080393;28;20020;-72
2023/09/11 08:58:51;;;;;;;10.80;5.15;;;25.80;99.90;;;;;;5079809;28;19911;-72
2023/09/11 09:01:17;;;;;;;11.65;4.75;;;25.90;99.90;;;;;;5080001;28;20556;-72
2023/09/11 09:03:44;;;;;;;9.55;3.65;;;26.00;99.90;;;;;;5061878;28;20479;-72
2023/09/11 09:06:10;;;;;;;11.25;3.97;;;26.20;99.90;;;;;;5079631;28;20021;-72
2023/09/11 09:08:36;;;;;;;8.18;2.75;;;26.40;99.90;;;;;;5079680;28;20081;-72
2023/09/11 09:11:02;;;;;;;6.28;2.60;;;26.50;99.90;;;;;;5079569;28;20104;-72
2023/09/11 09:13:32;;;;;;;8.77;3.80;;;26.70;99.90;;;;;;5080314;28;20506;-72
2023/09/11 09:15:58;;;;;;;4.68;2.78;;;26.80;99.90;;;;;;5079685;28;20020;-72
2023/09/11 09:18:24;;;;;;;6.72;2.92;;;26.90;99.90;;;;;;5061759;28;20025;-72
2023/09/11 09:20:49;;;;;;;6.82;2.53;;;27.00;99.90;;;;;;5079827;28;20035;-72
2023/09/11 09:23:16;;;;;;;4.95;2.70;;;26.80;99.90;;;;;;5079595;28;20095;-72
2023/09/11 09:25:42;;;;;;;12.45;2.88;;;26.90;99.90;;;;;;5079552;28;20040;-72
2023/09/11 09:28:07;;;;;;;10.27;3.05;;;26.90;99.90;;;;;;5079751;28;20499;-72
2023/09/11 09:30:34;;;;;;;4.00;2.10;;;27.10;99.90;;;;;;5080269;28;20534;-72
2023/09/11 09:33:02;;;;;;;7.25;3.28;;;27.10;99.90;;;;;;5079487;28;20039;-72
2023/09/11 09:35:34;;;;;;;4.60;2.78;;;27.10;99.90;;;;;;5079837;28;20028;-72
2023/09/11 09:38:01;;;;;;;8.65;2.97;;;27.10;99.90;;;;;;5077184;28;20079;-72
2023/09/11 09:40:47;;;;;;;6.80;2.63;;;27.20;99.90;;;;;;5076124;28;20089;-72
2023/09/11 09:43:17;;;;;;;8.65;2.33;;;27.30;99.90;;;;;;5076589;28;20024;-72
2023/09/11 09:45:42;;;;;;;6.90;2.38;;;27.50;99.90;;;;;;5058265;28;20032;-72
2023/09/11 09:48:11;;;;;;;6.43;2.30;;;27.60;99.90;;;;;;5076343;28;20392;-72
2023/09/11 09:50:48;;;;;;;;;;;27.60;99.90;;;;;;5076661;28;20420;-72
2023/09/11 09:53:42;;;;;;;6.47;2.17;;;27.60;99.90;;;;;;5075976;28;19911;-72
2023/09/11 09:56:09;;;;;;;6.00;1.90;;;27.60;99.90;;;;;;5049444;28;20032;-72
2023/09/11 09:58:43;;;;;;;2.97;1.85;;;27.60;99.90;;;;;;5057970;28;20016;-72
2023/09/11 10:01:11;;;;;;;6.30;1.98;;;27.50;99.90;;;;;;5075965;28;20028;-72
2023/09/11 10:03:48;;;;;;;5.13;2.70;;;27.50;99.90;;;;;;5076345;28;20024;-72
2023/09/11 10:06:16;;;;;;;5.13;2.40;;;27.60;99.90;;;;;;5058167;28;20476;-72
2023/09/11 10:08:42;;;;;;;2.53;1.38;;;27.60;99.90;;;;;;5057834;28;20387;-72
2023/09/11 10:11:08;;;;;;;3.05;1.75;;;27.50;99.90;;;;;;5075940;28;20020;-72
2023/09/11 10:13:36;;;;;;;7.60;1.77;;;27.70;99.90;;;;;;5075665;28;20545;-72
2023/09/11 10:16:02;;;;;;;3.95;1.88;;;27.80;99.90;;;;;;5075624;28;20395;-72
2023/09/11 10:18:31;;;;;;;5.90;2.10;;;27.90;99.90;;;;;;5075602;28;20020;-72
2023/09/11 10:20:57;;;;;;;3.30;1.52;;;27.90;99.90;;;;;;5076377;28;20039;-72
2023/09/11 10:23:23;;;;;;;7.22;2.72;;;27.90;99.90;;;;;;5075491;28;20013;-72
2023/09/11 10:25:53;;;;;;;7.25;2.22;;;27.90;99.90;;;;;;5075387;28;20052;-72
2023/09/11 10:28:33;;;;;;;16.10;2.75;;;28.00;99.90;;;;;;5075567;28;20438;-72
2023/09/11 10:31:19;;;;;;;5.82;1.77;;;28.10;99.90;;;;;;5075331;28;20138;-72
2023/09/11 10:33:49;;;;;;;7.97;2.50;;;28.30;99.90;;;;;;5076084;28;20020;-72
2023/09/11 10:36:20;;;;;;;5.75;1.35;;;28.40;99.90;;;;;;5075093;28;20036;-72
2023/09/11 10:38:47;;;;;;;4.68;1.00;;;28.50;99.90;;;;;;5075754;28;20059;-72
2023/09/11 10:41:13;;;;;;;3.90;0.82;;;28.60;99.90;;;;;;5074979;28;20035;-72
2023/09/11 10:43:39;;;;;;;7.90;1.30;;;28.70;99.90;;;;;;5056691;28;20036;-72
2023/09/11 10:46:21;;;;;;;5.15;1.02;;;28.80;99.90;;;;;;5075082;28;20021;-72
2023/09/11 10:48:46;;;;;;;2.88;0.93;;;28.90;99.90;;;;;;5075581;28;20056;-72
2023/09/11 10:51:13;;;;;;;2.55;0.73;;;28.90;99.90;;;;;;5074832;28;20024;-72
2023/09/11 10:53:40;;;;;;;3.60;0.60;;;29.10;99.90;;;;;;5074970;28;20038;-72
2023/09/11 10:56:06;;;;;;;4.28;1.95;;;29.20;99.90;;;;;;5074921;28;20020;-72
2023/09/11 10:58:33;;;;;;;8.38;1.80;;;29.20;99.90;;;;;;5056847;28;20483;-72
2023/09/11 11:00:58;;;;;;;5.30;1.05;;;29.20;99.90;;;;;;5074702;28;20021;-72
2023/09/11 11:03:26;;;;;;;3.20;1.33;;;29.30;99.90;;;;;;5074829;28;20035;-72
2023/09/11 11:05:52;;;;;;;1.73;0.93;;;29.50;99.90;;;;;;5074894;28;20479;-72
2023/09/11 11:08:18;;;;;;;4.68;0.73;;;29.60;99.90;;;;;;5074583;28;20044;-72
2023/09/11 11:10:55;;;;;;;0.98;0.40;;;29.70;99.90;;;;;;5074717;28;20067;-72
2023/09/11 11:13:22;;;;;;;2.92;0.68;;;29.80;99.90;;;;;;5074702;28;20044;-72
2023/09/11 11:15:47;;;;;;;6.93;0.40;;;29.90;99.90;;;;;;5056359;28;20050;-72
2023/09/11 11:18:28;;;;;;;2.88;0.77;;;30.00;98.60;;;;;;5074500;28;20028;-72
2023/09/11 11:21:05;;;;;;;5.03;0.30;;;30.10;99.70;;;;;;5074417;28;20419;-72
2023/09/11 11:23:35;;;;;;;3.72;0.38;;;30.20;99.70;;;;;;5074942;28;20024;-72
2023/09/11 11:26:06;;;;;;;5.85;0.50;;;30.40;98.90;;;;;;5074272;28;20025;-72
2023/09/11 11:28:42;;;;;;;1.20;0.30;;;30.40;99.30;;;;;;5074514;28;20017;-72
2023/09/11 11:31:12;;;;;;;0.93;0.50;;;30.50;97.10;;;;;;5074397;28;20032;-72
2023/09/11 11:33:38;;;;;;;1.35;0.60;;;30.30;98.90;;;;;;5075228;28;20515;-72
2023/09/11 11:36:08;;;;;;;2.35;0.10;;;30.40;98.70;;;;;;5074156;28;20028;-72
2023/09/11 11:38:35;;;;;;;2.72;0.30;;;30.60;98.00;;;;;;5074194;28;20106;-72
2023/09/11 11:41:01;;;;;;;1.50;0.52;;;30.50;97.50;;;;;;5074254;28;20025;-72
2023/09/11 11:43:27;;;;;;;2.10;0.68;;;30.60;97.20;;;;;;5074422;28;20361;-72
2023/09/11 11:45:55;;;;;;;3.45;0.38;;;30.60;96.50;;;;;;5073771;28;20035;-72
2023/09/11 11:48:21;;;;;;;4.97;0.90;;;30.70;97.30;;;;;;5074136;28;20388;-73
2023/09/11 11:50:49;;;;;;;9.82;0.90;;;30.70;96.60;;;;;;5055870;28;20035;-72
2023/09/11 11:53:14;;;;;;;;;;;30.90;97.20;;;;;;5074219;28;20399;-72
2023/09/11 11:55:41;;;;;;;2.13;0.68;;;31.00;97.30;;;;;;5074216;28;19944;-72
2023/09/11 11:58:09;;;;;;;3.00;0.70;;;31.20;98.00;;;;;;5055883;28;20074;-72
2023/09/11 12:00:35;;;;;;;3.05;0.65;;;31.30;97.50;;;;;;5073839;28;20025;-72
2023/09/11 12:03:07;;;;;;;3.05;0.57;;;31.50;96.90;;;;;;5073323;28;20074;-72
2023/09/11 12:05:33;;;;;;;4.10;0.80;;;31.50;96.10;;;;;;5073539;28;20368;-72
2023/09/11 12:08:00;;;;;;;1.77;0.65;;;31.40;95.30;;;;;;5073749;28;20027;-72
2023/09/11 12:10:25;;;;;;;2.58;0.40;;;31.40;96.30;;;;;;5073815;28;20074;-72
2023/09/11 12:12:51;;;;;;;2.03;0.50;;;31.50;96.00;;;;;;5055633;28;20423;-72
2023/09/11 12:15:18;;;;;;;3.30;0.60;;;31.50;95.80;;;;;;5073881;28;20589;-72
2023/09/11 12:17:49;;;;;;;1.40;0.95;;;31.50;96.30;;;;;;5073445;28;20048;-72
2023/09/11 12:20:18;;;;;;;1.25;0.70;;;31.50;95.60;;;;;;5073455;28;20029;-72
2023/09/11 12:22:45;;;;;;;4.00;0.60;;;31.30;95.40;;;;;;5073388;28;20357;-72
2023/09/11 12:25:12;;;;;;;3.23;0.97;;;31.30;95.60;;;;;;5073514;28;20388;-72
2023/09/11 12:27:37;;;;;;;1.67;0.55;;;31.40;96.00;;;;;;5073437;28;20017;-72
2023/09/11 12:30:05;;;;;;;3.00;0.60;;;31.40;95.50;;;;;;5073434;28;20025;-72
2023/09/11 12:32:32;;;;;;;4.97;1.23;;;31.50;95.70;;;;;;5073456;28;20017;-72
2023/09/11 12:34:58;;;;;;;2.75;1.02;;;31.50;96.10;;;;;;5073311;28;20071;-72
2023/09/11 12:37:26;;;;;;;3.20;1.13;;;31.60;96.30;;;;;;5073327;28;20044;-72